createdAt,value
2022-10-06T00:00:38.839Z,1.08
2022-10-06T00:03:06.192Z,0.60
2022-10-06T00:05:34.166Z,2.28
2022-10-06T00:08:01.304Z,0.13
2022-10-06T00:10:28.078Z,3.92
2022-10-06T00:12:54.804Z,2.97
2022-10-06T00:15:31.747Z,0.28
2022-10-06T00:17:58.831Z,2.45
2022-10-06T00:20:27.536Z,0.77
2022-10-06T00:22:54.670Z,0.63
2022-10-06T00:25:23.872Z,0.10
2022-10-06T00:27:52.165Z,0.40
2022-10-06T00:30:22.121Z,1.05
2022-10-06T00:32:58.048Z,1.08
2022-10-06T00:35:26.306Z,0.10
2022-10-06T00:37:53.185Z,0.20
2022-10-06T00:40:22.538Z,0.32
2022-10-06T00:42:58.375Z,0.40
2022-10-06T00:45:34.049Z,1.98
2022-10-06T00:48:29.433Z,0.25
2022-10-06T00:50:59.229Z,0.20
2022-10-06T00:53:30.365Z,1.92
2022-10-06T00:55:57.419Z,1.20
2022-10-06T00:58:24.977Z,0.13
2022-10-06T01:00:55.901Z,2.40
2022-10-06T01:03:30.035Z,0.10
2022-10-06T01:05:58.231Z,0.10
2022-10-06T01:08:26.189Z,2.28
2022-10-06T01:10:52.968Z,0.63
2022-10-06T01:13:22.100Z,0.10
2022-10-06T01:15:55.097Z,0.70
2022-10-06T01:18:29.055Z,0.10
2022-10-06T01:21:05.280Z,0.10
2022-10-06T01:23:34.404Z,0.35
2022-10-06T01:26:04.946Z,0.10
2022-10-06T01:28:32.550Z,0.10
2022-10-06T01:31:02.827Z,6.72
2022-10-06T01:33:30.042Z,1.27
2022-10-06T01:35:56.987Z,8.15
2022-10-06T01:38:24.211Z,0.20
2022-10-06T01:40:53.047Z,0.52
2022-10-06T01:43:19.863Z,1.80
2022-10-06T01:45:55.079Z,0.10
2022-10-06T01:48:22.277Z,1.08
2022-10-06T01:50:50.772Z,3.10
2022-10-06T01:53:20.230Z,1.95
2022-10-06T01:55:46.931Z,1.83
2022-10-06T01:58:13.936Z,0.63
2022-10-06T02:00:40.552Z,0.20
2022-10-06T02:03:08.463Z,0.82
2022-10-06T02:05:36.144Z,0.65
2022-10-06T02:08:05.659Z,0.43
2022-10-06T02:10:32.205Z,0.45
2022-10-06T02:12:58.998Z,2.17
2022-10-06T02:15:26.945Z,0.13
2022-10-06T02:17:54.567Z,0.35
2022-10-06T02:20:23.955Z,2.00
2022-10-06T02:22:52.394Z,0.10
2022-10-06T02:25:19.008Z,0.20
2022-10-06T02:27:45.724Z,0.90
2022-10-06T02:30:14.619Z,0.10
2022-10-06T02:32:42.826Z,1.88
2022-10-06T02:35:11.402Z,4.13
2022-10-06T02:37:38.022Z,6.50
2022-10-06T02:40:05.144Z,0.20
2022-10-06T02:42:31.898Z,0.15
2022-10-06T02:45:01.231Z,2.88
2022-10-06T02:47:27.780Z,0.10
2022-10-06T02:49:56.513Z,0.10
2022-10-06T02:52:23.538Z,2.92
2022-10-06T02:54:50.811Z,1.38
2022-10-06T02:57:17.365Z,0.20
2022-10-06T02:59:43.977Z,1.95
2022-10-06T03:02:11.305Z,0.20
2022-10-06T03:04:38.604Z,1.60
2022-10-06T03:07:05.242Z,1.45
2022-10-06T03:09:31.856Z,0.20
2022-10-06T03:11:58.680Z,0.10
2022-10-06T03:14:25.303Z,2.20
2022-10-06T03:16:52.192Z,0.10
2022-10-06T03:19:18.731Z,0.10
2022-10-06T03:21:45.392Z,0.28
2022-10-06T03:24:12.548Z,2.58
2022-10-06T03:26:45.069Z,2.67
2022-10-06T03:29:12.234Z,0.22
2022-10-06T03:31:39.848Z,3.55
2022-10-06T03:34:07.138Z,0.20
2022-10-06T03:36:36.349Z,0.10
2022-10-06T03:39:04.784Z,1.08
2022-10-06T03:41:34.091Z,1.35
2022-10-06T03:44:02.998Z,3.35
2022-10-06T03:46:31.524Z,0.17
2022-10-06T03:48:59.352Z,2.20
2022-10-06T03:51:31.935Z,0.77
2022-10-06T03:53:59.843Z,2.05
2022-10-06T03:56:34.748Z,0.10
2022-10-06T03:59:04.105Z,0.22
2022-10-06T04:01:34.882Z,1.70
2022-10-06T04:04:04.721Z,0.68
2022-10-06T04:06:35.679Z,0.40
2022-10-06T04:09:03.642Z,1.52
2022-10-06T04:11:33.163Z,0.70
2022-10-06T04:14:05.825Z,0.32
2022-10-06T04:16:35.338Z,1.95
2022-10-06T04:19:04.360Z,0.20
2022-10-06T04:21:33.935Z,0.32
2022-10-06T04:24:00.773Z,0.20
2022-10-06T04:26:33.539Z,0.60
2022-10-06T04:29:00.854Z,0.32
2022-10-06T04:31:30.091Z,0.65
2022-10-06T04:33:58.583Z,0.38
2022-10-06T04:36:29.740Z,2.97
2022-10-06T04:38:58.887Z,1.35
2022-10-06T04:41:33.939Z,2.45
2022-10-06T04:44:01.542Z,0.65
2022-10-06T04:46:42.842Z,2.88
2022-10-06T04:49:14.651Z,0.85
2022-10-06T04:51:44.586Z,0.20
2022-10-06T04:54:11.444Z,3.53
2022-10-06T04:56:38.007Z,0.20
2022-10-06T04:59:04.551Z,3.05
2022-10-06T05:01:33.364Z,1.88
2022-10-06T05:04:02.513Z,0.20
2022-10-06T05:06:33.085Z,1.10
2022-10-06T05:09:01.881Z,4.25
2022-10-06T05:11:29.209Z,0.28
2022-10-06T05:13:57.528Z,2.58
2022-10-06T05:16:27.510Z,0.98
2022-10-06T05:18:56.221Z,1.00
2022-10-06T05:21:27.427Z,0.45
2022-10-06T05:23:54.206Z,1.75
2022-10-06T05:26:23.343Z,0.28
2022-10-06T05:28:50.167Z,0.45
2022-10-06T05:31:41.210Z,0.30
2022-10-06T05:34:07.955Z,1.80
2022-10-06T05:36:34.955Z,0.30
2022-10-06T05:39:02.835Z,0.20
2022-10-06T05:41:31.589Z,0.88
2022-10-06T05:43:58.564Z,0.40
2022-10-06T05:46:30.788Z,0.10
2022-10-06T05:48:59.940Z,3.90
2022-10-06T05:51:30.907Z,0.20
2022-10-06T05:53:58.847Z,0.20
2022-10-06T05:56:27.609Z,3.30
2022-10-06T05:58:55.989Z,0.38
2022-10-06T06:01:26.765Z,0.30
2022-10-06T06:04:02.963Z,0.88
2022-10-06T06:06:36.807Z,0.20
2022-10-06T06:09:10.844Z,1.15
2022-10-06T06:11:43.745Z,2.75
2022-10-06T06:14:15.641Z,1.55
2022-10-06T06:16:43.755Z,0.28
2022-10-06T06:19:13.529Z,1.52
2022-10-06T06:21:40.100Z,0.25
2022-10-06T06:24:07.261Z,0.82
2022-10-06T06:26:37.016Z,0.60
2022-10-06T06:29:05.300Z,0.20
2022-10-06T06:31:39.964Z,0.40
2022-10-06T06:36:36.895Z,0.20
2022-10-06T06:39:06.539Z,0.57
2022-10-06T06:41:37.930Z,0.38
2022-10-06T06:44:06.871Z,0.20
2022-10-06T06:49:04.907Z,0.75
2022-10-06T06:51:33.307Z,0.10
2022-10-06T06:54:02.420Z,0.20
2022-10-06T06:56:35.289Z,1.10
2022-10-06T06:59:06.664Z,0.65
2022-10-06T07:01:33.658Z,0.10
2022-10-06T07:04:01.255Z,0.40
2022-10-06T07:06:30.222Z,0.10
2022-10-06T07:08:58.816Z,2.10
2022-10-06T07:11:32.680Z,0.25
2022-10-06T07:14:03.987Z,0.52
2022-10-06T07:16:52.883Z,0.10
2022-10-06T07:19:39.704Z,0.32
2022-10-06T07:22:27.514Z,1.15
2022-10-06T07:25:07.940Z,0.40
2022-10-06T07:27:37.493Z,0.40
2022-10-06T07:30:05.655Z,5.68
2022-10-06T07:32:32.471Z,2.75
2022-10-06T07:34:59.156Z,2.38
2022-10-06T07:37:26.061Z,1.50
2022-10-06T07:39:52.787Z,0.70
2022-10-06T07:42:19.510Z,1.13
2022-10-06T07:45:06.891Z,2.50
2022-10-06T07:47:33.879Z,1.65
2022-10-06T07:50:02.795Z,0.20
2022-10-06T07:52:29.486Z,0.32
2022-10-06T07:54:56.752Z,0.43
2022-10-06T07:57:23.640Z,0.30
2022-10-06T07:59:50.760Z,0.38
2022-10-06T08:02:19.227Z,0.10
2022-10-06T08:04:45.809Z,0.52
2022-10-06T08:07:12.652Z,0.22
2022-10-06T08:09:41.122Z,0.30
2022-10-06T08:12:27.853Z,0.57
2022-10-06T08:14:57.227Z,2.65
2022-10-06T08:17:24.131Z,1.98
2022-10-06T08:19:51.299Z,0.38
2022-10-06T08:22:17.917Z,2.45
2022-10-06T08:25:04.692Z,7.13
2022-10-06T08:27:31.633Z,0.22
2022-10-06T08:29:58.216Z,3.58
2022-10-06T08:32:25.278Z,1.85
2022-10-06T08:34:52.353Z,0.63
2022-10-06T08:37:29.083Z,0.60
2022-10-06T08:39:59.118Z,0.65
2022-10-06T08:42:42.615Z,2.97
2022-10-06T08:45:33.957Z,2.20
2022-10-06T08:48:10.664Z,0.65
2022-10-06T08:50:58.659Z,0.98
2022-10-06T08:53:47.079Z,1.55
2022-10-06T08:56:34.433Z,1.17
2022-10-06T08:59:04.327Z,2.92
2022-10-06T09:01:41.421Z,0.40
2022-10-06T09:04:14.233Z,0.50
2022-10-06T09:06:43.705Z,1.00
2022-10-06T09:09:22.641Z,1.85
2022-10-06T09:11:59.461Z,1.55
2022-10-06T09:14:37.909Z,2.90
2022-10-06T09:17:11.393Z,2.28
2022-10-06T09:19:47.849Z,2.33
2022-10-06T09:22:22.388Z,0.75
2022-10-06T09:27:23.326Z,0.88
2022-10-06T09:29:51.244Z,2.95
2022-10-06T09:32:20.971Z,0.73
2022-10-06T09:34:56.856Z,1.38
2022-10-06T09:37:24.001Z,2.17
2022-10-06T09:39:52.152Z,0.45
2022-10-06T09:42:23.039Z,1.92
2022-10-06T09:45:18.831Z,1.63
2022-10-06T09:47:48.073Z,1.55
2022-10-06T09:50:28.351Z,0.73
2022-10-06T09:52:58.058Z,0.57
2022-10-06T09:55:28.796Z,0.38
2022-10-06T09:57:57.405Z,0.20
2022-10-06T10:00:27.088Z,0.45
2022-10-06T10:03:03.091Z,0.85
2022-10-06T10:05:36.397Z,0.65
2022-10-06T10:08:06.289Z,1.85
2022-10-06T10:10:37.849Z,1.35
2022-10-06T10:13:24.279Z,5.32
2022-10-06T10:15:54.315Z,1.75
2022-10-06T10:18:28.635Z,2.05
2022-10-06T10:21:10.552Z,4.47
2022-10-06T10:23:43.585Z,2.80
2022-10-06T10:26:41.105Z,2.38
2022-10-06T10:29:42.939Z,1.40
2022-10-06T10:32:17.267Z,0.30
2022-10-06T10:35:16.776Z,0.38
2022-10-06T10:37:46.251Z,0.68
2022-10-06T10:40:40.819Z,0.30
2022-10-06T10:43:22.417Z,4.55
2022-10-06T10:45:59.200Z,0.68
2022-10-06T10:49:12.319Z,2.92
2022-10-06T10:52:02.160Z,3.47
2022-10-06T10:54:43.985Z,3.58
2022-10-06T10:57:15.283Z,2.00
2022-10-06T10:59:47.611Z,1.88
2022-10-06T11:02:22.079Z,3.35
2022-10-06T11:07:44.261Z,8.50
2022-10-06T11:10:24.087Z,1.95
2022-10-06T11:12:54.382Z,2.45
2022-10-06T11:15:44.273Z,0.25
2022-10-06T11:18:22.368Z,2.05
2022-10-06T11:20:57.969Z,1.20
2022-10-06T11:24:03.526Z,1.38
2022-10-06T11:26:30.036Z,5.25
2022-10-06T11:29:02.579Z,2.97
2022-10-06T11:32:10.576Z,4.18
2022-10-06T11:34:37.451Z,3.22
2022-10-06T11:37:25.097Z,0.70
2022-10-06T11:40:28.216Z,0.40
2022-10-06T11:43:02.633Z,1.27
2022-10-06T11:45:38.212Z,0.45
2022-10-06T11:48:23.329Z,5.18
2022-10-06T11:50:53.165Z,4.43
2022-10-06T11:53:31.975Z,3.20
2022-10-06T11:56:16.866Z,0.20
2022-10-06T12:04:10.426Z,2.13
2022-10-06T12:06:46.049Z,2.35
2022-10-06T12:09:44.704Z,2.55
2022-10-06T12:12:11.643Z,2.17
2022-10-06T12:16:35.313Z,3.42
2022-10-06T12:17:58.066Z,1.02
2022-10-06T12:21:06.432Z,1.13
2022-10-06T12:23:58.029Z,4.50
2022-10-06T12:27:01.902Z,1.08
2022-10-06T12:29:42.823Z,1.23
2022-10-06T12:32:14.744Z,0.88
2022-10-06T12:34:46.417Z,0.80
2022-10-06T12:37:31.692Z,2.35
2022-10-06T12:40:36.597Z,0.55
2022-10-06T12:43:18.418Z,1.30
2022-10-06T12:45:54.979Z,2.03
2022-10-06T12:48:40.296Z,4.28
2022-10-06T12:51:14.442Z,3.05
2022-10-06T12:54:21.292Z,1.23
2022-10-06T12:57:03.963Z,1.05
2022-10-06T12:59:38.305Z,7.32
2022-10-06T13:02:11.309Z,0.55
2022-10-06T13:04:48.533Z,1.20
2022-10-06T13:07:28.976Z,3.97
2022-10-06T13:10:13.965Z,1.73
2022-10-06T13:15:20.042Z,0.32
2022-10-06T13:18:04.702Z,2.95
2022-10-06T13:20:52.443Z,0.35
2022-10-06T13:23:35.075Z,0.30
2022-10-06T13:26:03.039Z,1.30
2022-10-06T13:28:35.859Z,0.82
2022-10-06T13:31:14.845Z,2.92
2022-10-06T13:33:46.327Z,2.40
2022-10-06T13:36:13.533Z,2.20
2022-10-06T13:38:41.920Z,3.20
2022-10-06T13:41:11.502Z,0.95
2022-10-06T13:43:44.896Z,3.15
2022-10-06T13:46:16.018Z,1.77
2022-10-06T13:48:49.615Z,8.77
2022-10-06T13:51:23.421Z,2.35
2022-10-06T13:53:53.880Z,1.08
2022-10-06T13:59:27.802Z,3.35
2022-10-06T14:01:58.205Z,2.20
2022-10-06T14:04:25.240Z,0.20
2022-10-06T14:07:01.858Z,0.70
2022-10-06T14:09:33.843Z,0.80
2022-10-06T14:12:12.473Z,1.00
2022-10-06T14:14:39.976Z,2.72
2022-10-06T14:17:09.217Z,1.30
2022-10-06T14:19:39.020Z,0.50
2022-10-06T14:22:06.618Z,0.85
2022-10-06T14:24:37.560Z,1.02
2022-10-06T14:27:06.723Z,0.57
2022-10-06T14:29:34.340Z,2.17
2022-10-06T14:32:27.143Z,1.17
2022-10-06T14:34:53.768Z,3.72
2022-10-06T14:37:20.367Z,0.17
2022-10-06T14:39:49.296Z,2.17
2022-10-06T14:42:18.083Z,0.65
2022-10-06T14:44:44.872Z,1.05
2022-10-06T14:47:13.232Z,2.15
2022-10-06T14:49:40.744Z,3.53
2022-10-06T14:52:10.449Z,2.50
2022-10-06T14:54:37.221Z,2.50
2022-10-06T14:57:06.900Z,1.60
2022-10-06T14:59:33.519Z,0.45
2022-10-06T15:02:00.154Z,1.98
2022-10-06T15:04:28.272Z,0.50
2022-10-06T15:07:13.328Z,0.88
2022-10-06T15:09:42.087Z,1.02
2022-10-06T15:12:08.697Z,2.67
2022-10-06T15:14:39.682Z,1.48
2022-10-06T15:17:06.716Z,0.52
2022-10-06T15:19:34.144Z,0.30
2022-10-06T15:22:03.440Z,2.85
2022-10-06T15:24:30.051Z,0.40
2022-10-06T15:27:15.592Z,2.45
2022-10-06T15:29:42.632Z,3.22
2022-10-06T15:32:09.687Z,1.98
2022-10-06T15:34:38.013Z,2.30
2022-10-06T15:37:05.092Z,0.40
2022-10-06T15:39:35.848Z,1.75
2022-10-06T15:42:02.913Z,0.47
2022-10-06T15:44:34.248Z,0.32
2022-10-06T15:47:01.211Z,1.65
2022-10-06T15:49:29.712Z,1.70
2022-10-06T15:51:59.749Z,2.10
2022-10-06T15:54:34.544Z,0.82
2022-10-06T15:57:04.656Z,5.20
2022-10-06T15:59:33.961Z,2.28
2022-10-06T16:02:04.847Z,1.88
2022-10-06T16:04:34.805Z,0.70
2022-10-06T16:07:03.616Z,2.90
2022-10-06T16:09:39.312Z,1.55
2022-10-06T16:12:13.339Z,2.47
2022-10-06T16:14:40.046Z,2.38
2022-10-06T16:17:07.538Z,1.10
2022-10-06T16:19:37.023Z,2.78
2022-10-06T16:22:05.313Z,2.83
2022-10-06T16:24:32.733Z,0.93
2022-10-06T16:27:02.220Z,4.50
2022-10-06T16:29:29.111Z,1.35
2022-10-06T16:31:56.065Z,3.78
2022-10-06T16:34:22.752Z,1.85
2022-10-06T16:36:49.467Z,3.20
2022-10-06T16:39:18.366Z,1.90
2022-10-06T16:41:47.829Z,1.35
2022-10-06T16:44:14.608Z,5.30
2022-10-06T16:46:41.474Z,2.75
2022-10-06T16:49:11.556Z,6.45
2022-10-06T16:51:42.952Z,1.75
2022-10-06T16:54:14.489Z,0.73
2022-10-06T16:56:44.197Z,6.53
2022-10-06T16:59:14.902Z,2.05
2022-10-06T17:01:42.278Z,7.03
2022-10-06T17:04:11.826Z,7.25
2022-10-06T17:06:46.901Z,5.47
2022-10-06T17:09:21.695Z,4.55
2022-10-06T17:11:51.610Z,7.82
2022-10-06T17:14:20.236Z,4.45
2022-10-06T17:16:48.391Z,6.13
2022-10-06T17:19:17.045Z,7.60
2022-10-06T17:21:46.674Z,7.45
2022-10-06T17:24:14.728Z,4.72
2022-10-06T17:26:45.374Z,6.25
2022-10-06T17:29:14.976Z,4.70
2022-10-06T17:31:43.659Z,5.45
2022-10-06T17:34:20.368Z,7.43
2022-10-06T17:36:50.071Z,6.57
2022-10-06T17:39:19.218Z,8.10
2022-10-06T17:41:47.112Z,9.55
2022-10-06T17:44:18.873Z,9.35
2022-10-06T17:46:45.971Z,6.85
2022-10-06T17:49:15.133Z,7.43
2022-10-06T17:51:48.078Z,5.55
2022-10-06T17:54:19.000Z,10.25
2022-10-06T17:56:51.903Z,8.70
2022-10-06T17:59:22.388Z,6.72
2022-10-06T18:01:51.465Z,10.23
2022-10-06T18:04:19.923Z,4.45
2022-10-06T18:06:47.657Z,8.60
2022-10-06T18:09:15.081Z,7.15
2022-10-06T18:11:43.987Z,11.60
2022-10-06T18:14:12.780Z,9.52
2022-10-06T18:17:00.944Z,8.07
2022-10-06T18:19:35.617Z,4.30
2022-10-06T18:24:31.538Z,10.05
2022-10-06T18:27:00.301Z,8.02
2022-10-06T18:29:32.723Z,7.97
2022-10-06T18:32:40.484Z,5.60
2022-10-06T18:37:35.718Z,10.70
2022-10-06T18:40:05.939Z,12.00
2022-10-06T18:42:32.804Z,10.02
2022-10-06T18:45:18.116Z,9.75
2022-10-06T18:48:03.456Z,15.00
2022-10-06T18:50:31.061Z,8.30
2022-10-06T18:52:59.709Z,16.25
2022-10-06T18:55:29.740Z,7.57
2022-10-06T18:57:56.368Z,14.30
2022-10-06T19:00:25.935Z,8.40
2022-10-06T19:02:52.623Z,11.30
2022-10-06T19:05:20.938Z,6.40
2022-10-06T19:07:47.549Z,11.25
2022-10-06T19:10:14.256Z,12.63
2022-10-06T19:12:40.925Z,9.88
2022-10-06T19:15:07.736Z,7.88
2022-10-06T19:17:34.657Z,6.10
2022-10-06T19:20:01.365Z,9.88
2022-10-06T19:22:27.975Z,6.90
2022-10-06T19:24:56.900Z,7.75
2022-10-06T19:27:25.083Z,8.60
2022-10-06T19:29:56.788Z,6.93
2022-10-06T19:32:27.493Z,12.98
2022-10-06T19:34:57.967Z,8.77
2022-10-06T19:37:27.021Z,7.75
2022-10-06T19:39:53.781Z,14.15
2022-10-06T19:42:38.831Z,7.88
2022-10-06T19:45:06.649Z,10.32
2022-10-06T19:47:33.648Z,7.03
2022-10-06T19:50:04.816Z,8.25
2022-10-06T19:52:34.688Z,9.40
2022-10-06T19:55:01.298Z,8.75
2022-10-06T19:57:31.642Z,13.20
2022-10-06T19:59:58.219Z,5.72
2022-10-06T20:02:24.817Z,9.23
2022-10-06T20:04:52.141Z,8.35
2022-10-06T20:07:21.758Z,5.57
2022-10-06T20:09:48.984Z,9.50
2022-10-06T20:12:23.652Z,12.23
2022-10-06T20:14:53.852Z,6.72
2022-10-06T20:17:21.340Z,17.23
2022-10-06T20:19:48.255Z,7.05
2022-10-06T20:22:15.452Z,9.02
2022-10-06T20:24:42.448Z,6.93
2022-10-06T20:27:09.222Z,11.20
2022-10-06T20:29:36.127Z,12.68
2022-10-06T20:32:03.976Z,14.95
2022-10-06T20:34:33.786Z,10.98
2022-10-06T20:37:02.602Z,12.35
2022-10-06T20:39:51.416Z,8.90
2022-10-06T20:42:19.780Z,5.65
2022-10-06T20:44:46.651Z,13.68
2022-10-06T20:47:13.708Z,15.70
2022-10-06T20:49:42.527Z,6.45
2022-10-06T20:52:09.939Z,8.68
2022-10-06T20:54:37.398Z,15.50
2022-10-06T20:57:06.335Z,6.75
2022-10-06T20:59:35.428Z,9.98
2022-10-06T21:02:05.160Z,9.10
2022-10-06T21:04:31.831Z,13.68
2022-10-06T21:06:58.372Z,14.80
2022-10-06T21:09:25.339Z,8.27
2022-10-06T21:11:52.297Z,5.68
2022-10-06T21:14:19.134Z,10.07
2022-10-06T21:16:47.550Z,16.50
2022-10-06T21:19:16.731Z,13.80
2022-10-06T21:21:45.792Z,5.25
2022-10-06T21:24:12.498Z,13.10
2022-10-06T21:26:44.347Z,13.20
2022-10-06T21:29:15.645Z,8.30
2022-10-06T21:31:45.394Z,14.88
2022-10-06T21:34:16.324Z,9.80
2022-10-06T21:36:44.178Z,12.02
2022-10-06T21:39:12.024Z,10.63
2022-10-06T21:41:39.621Z,16.80
2022-10-06T21:44:07.402Z,19.70
2022-10-06T21:46:40.810Z,10.55
2022-10-06T21:49:13.478Z,12.90
2022-10-06T21:51:43.906Z,9.65
2022-10-06T21:54:10.510Z,12.35
2022-10-06T21:56:37.160Z,12.52
2022-10-06T21:59:04.809Z,16.77
2022-10-06T22:01:34.777Z,16.35
2022-10-06T22:04:02.150Z,11.38
2022-10-06T22:06:30.794Z,12.25
2022-10-06T22:08:58.758Z,12.43
2022-10-06T22:11:30.769Z,14.10
2022-10-06T22:14:00.394Z,10.65
2022-10-06T22:16:30.522Z,23.17
2022-10-06T22:18:57.484Z,14.52
2022-10-06T22:21:25.318Z,15.05
2022-10-06T22:23:59.101Z,11.48
2022-10-06T22:26:26.763Z,10.53
2022-10-06T22:28:55.107Z,18.77
2022-10-06T22:31:26.061Z,17.80
2022-10-06T22:33:58.666Z,19.55
2022-10-06T22:36:27.298Z,17.90
2022-10-06T22:38:54.805Z,14.20
2022-10-06T22:41:21.527Z,13.75
2022-10-06T22:43:48.189Z,16.00
2022-10-06T22:46:15.132Z,16.63
2022-10-06T22:48:41.980Z,15.75
2022-10-06T22:51:08.570Z,14.57
2022-10-06T22:53:35.383Z,10.55
2022-10-06T22:56:02.563Z,11.45
2022-10-06T22:58:31.245Z,13.07
2022-10-06T23:00:57.806Z,9.63
2022-10-06T23:03:25.857Z,12.20
2022-10-06T23:05:57.571Z,15.93
2022-10-06T23:08:25.029Z,9.98
2022-10-06T23:10:52.182Z,23.10
2022-10-06T23:13:19.123Z,9.82
2022-10-06T23:15:46.031Z,13.85
2022-10-06T23:18:12.852Z,13.50
2022-10-06T23:20:41.910Z,14.85
2022-10-06T23:23:08.515Z,15.10
2022-10-06T23:25:38.627Z,8.20
2022-10-06T23:28:05.224Z,18.55
2022-10-06T23:30:34.751Z,16.00
2022-10-06T23:33:03.386Z,10.23
2022-10-06T23:35:29.931Z,19.48
2022-10-06T23:37:56.502Z,14.15
2022-10-06T23:40:23.134Z,16.42
2022-10-06T23:42:49.738Z,17.40
2022-10-06T23:45:16.479Z,11.63
2022-10-06T23:47:43.230Z,11.88
2022-10-06T23:50:10.170Z,11.23
2022-10-06T23:52:37.326Z,15.82
2022-10-06T23:55:04.274Z,13.93
2022-10-06T23:57:30.898Z,15.40
2022-10-06T23:59:59.862Z,14.52
